Stolt Spray — ZCSQ9 — position and weather

sailwx.info

Track history (hours):
 
Tides and Currents Weather Stations Pressure Air Temp Water Temp Dewpoint Dewpoint Depression Visibility Wind Speed Wind Dir Waves Ship Positions

Stolt Spray

Last reported at 2014-Oct-06 12:06 UTC. Time now 2014-Oct-20 11:32 UTC.
Position N 01°13' E 103°29'.
Warning: this ship's position is 13 days out of date.

Length 163 m; draft 10.3 m.

Type: Ship (hazmat cat A). MMSI: 319591000.

Date/timePositionNaut miles runAvg speedWind from/ knotsBaromVisibWave heightAir tempDewpointWater temp
2014-Oct-06 12:06N 01°13' E 103°29'813.9
2014-Oct-06 11:33N 01°11' E 103°36'1313.3
2014-Oct-06 10:33N 01°11' E 103°50'1713.9
2014-Oct-06 09:20N 01°17' E 104°06'7 8.9
2014-Oct-06 08:34N 01°22' E 104°02'4 0.2
2014-Oct-05 12:08N 01°24' E 103°58'5 8.4
2014-Oct-05 11:33N 01°22' E 104°02'5 5.3
2014-Oct-05 10:31N 01°19' E 104°07'  
2014-Oct-02 00:15N 01°15' E 104°02'23 1.4
2014-Oct-01 07:33N 01°14' E 103°39'0 0.0
2014-Oct-01 04:09N 01°14' E 103°39'1 0.9
2014-Oct-01 02:33N 01°13' E 103°40'6 5.8
2014-Oct-01 01:31N 01°18' E 103°44'0 0.0
2014-Oct-01 00:31N 01°18' E 103°44'0 0.0
2014-Sep-30 23:31N 01°18' E 103°44'0 0.0
2014-Sep-30 22:31N 01°18' E 103°44'0 0.1
2014-Sep-30 21:31N 01°18' E 103°44'0 0.0
2014-Sep-30 20:31N 01°18' E 103°44'0 0.0
2014-Sep-30 19:31N 01°18' E 103°44'0 0.1
2014-Sep-30 18:31N 01°18' E 103°44'0 0.1
2014-Sep-30 17:28N 01°18' E 103°44'0 0.0
2014-Sep-30 16:31N 01°18' E 103°44'0 0.1
2014-Sep-30 15:31N 01°18' E 103°44'0 0.0
2014-Sep-30 14:31N 01°18' E 103°44'0 0.0
2014-Sep-30 13:31N 01°18' E 103°44'0 0.1
2014-Sep-30 12:28N 01°18' E 103°44'0 0.0
2014-Sep-30 11:31N 01°18' E 103°44'0 0.1
2014-Sep-30 10:33N 01°18' E 103°44'3 3.4
2014-Sep-30 09:33N 01°15' E 103°45'7 6.4
2014-Sep-30 08:31N 01°13' E 103°39'0 0.1
2014-Sep-30 07:25N 01°13' E 103°39'0 0.0
2014-Sep-30 06:31N 01°13' E 103°39'1 1.6
2014-Sep-30 05:34N 01°12' E 103°40'4 3.8
2014-Sep-30 04:33N 01°10' E 103°43'4 4.1
2014-Sep-30 03:33N 01°10' E 103°47'1211.8
2014-Sep-30 02:33N 01°15' E 103°58'11 0.9
2014-Sep-29 14:30N 01°26' E 103°54'8 6.0
2014-Sep-29 13:10N 01°23' E 104°02'  
Track history (hours):
 
Tides and Currents Weather Stations Pressure Air Temp Water Temp Dewpoint Dewpoint Depression Visibility Wind Speed Wind Dir Waves Ship Positions

Stolt Spray

Last reported at 2014-Oct-06 12:06 UTC. Time now 2014-Oct-20 11:32 UTC.
Position N 01°13' E 103°29'.
Warning: this ship's position is 13 days out of date.

Length 163 m; draft 10.3 m.

Type: Ship (hazmat cat A). MMSI: 319591000.

Date/timePositionNaut miles runAvg speedWind from/ knotsBaromVisibWave heightAir tempDewpointWater temp
2014-Oct-06 12:06N 01°13' E 103°29'813.9
2014-Oct-06 11:33N 01°11' E 103°36'1313.3
2014-Oct-06 10:33N 01°11' E 103°50'1713.9
2014-Oct-06 09:20N 01°17' E 104°06'7 8.9
2014-Oct-06 08:34N 01°22' E 104°02'4 0.2
2014-Oct-05 12:08N 01°24' E 103°58'5 8.4
2014-Oct-05 11:33N 01°22' E 104°02'5 5.3
2014-Oct-05 10:31N 01°19' E 104°07'  
2014-Oct-02 00:15N 01°15' E 104°02'23 1.4
2014-Oct-01 07:33N 01°14' E 103°39'0 0.0
2014-Oct-01 04:09N 01°14' E 103°39'1 0.9
2014-Oct-01 02:33N 01°13' E 103°40'6 5.8
2014-Oct-01 01:31N 01°18' E 103°44'0 0.0
2014-Oct-01 00:31N 01°18' E 103°44'0 0.0
2014-Sep-30 23:31N 01°18' E 103°44'0 0.0
2014-Sep-30 22:31N 01°18' E 103°44'0 0.1
2014-Sep-30 21:31N 01°18' E 103°44'0 0.0
2014-Sep-30 20:31N 01°18' E 103°44'0 0.0
2014-Sep-30 19:31N 01°18' E 103°44'0 0.1
2014-Sep-30 18:31N 01°18' E 103°44'0 0.1
2014-Sep-30 17:28N 01°18' E 103°44'0 0.0
2014-Sep-30 16:31N 01°18' E 103°44'0 0.1
2014-Sep-30 15:31N 01°18' E 103°44'0 0.0
2014-Sep-30 14:31N 01°18' E 103°44'0 0.0
2014-Sep-30 13:31N 01°18' E 103°44'0 0.1
2014-Sep-30 12:28N 01°18' E 103°44'0 0.0
2014-Sep-30 11:31N 01°18' E 103°44'0 0.1
2014-Sep-30 10:33N 01°18' E 103°44'3 3.4
2014-Sep-30 09:33N 01°15' E 103°45'7 6.4
2014-Sep-30 08:31N 01°13' E 103°39'0 0.1
2014-Sep-30 07:25N 01°13' E 103°39'0 0.0
2014-Sep-30 06:31N 01°13' E 103°39'1 1.6
2014-Sep-30 05:34N 01°12' E 103°40'4 3.8
2014-Sep-30 04:33N 01°10' E 103°43'4 4.1
2014-Sep-30 03:33N 01°10' E 103°47'1211.8
2014-Sep-30 02:33N 01°15' E 103°58'11 0.9
2014-Sep-29 14:30N 01°26' E 103°54'8 6.0
2014-Sep-29 13:10N 01°23' E 104°02'  

Dump ship's entire track history